CheckWX is a tool to help pilots better visualize weather data.  It is not intended as a substitute for an official pre-flight weather briefing.

03:29:35 UTC

KEAR METAR
Kearney Regional Airport
Kearney, Nebraska, USA
Current

33 mins ago

KEAR 240257Z AUTO 06010KT 5SM BR SCT004 06/06 A2985 RMK AO2 SLP116 60042 T00610056 52007
Observed
Mar-24 @ 02:57 UTC
Wind
  • 060° at 10 KTS
Visibility
5 SM
Flight Rules
MVFR
Conditions
Mist
Cloud Levels
  • Scattered at 400' AGL
Temperature
C / 43°F
Dewpoint
C / 43°F
Humidity
100%
Altimeter
29.85" Hg
Pressure
1011.6 hPa
Previous

1 hour ago

KEAR 240216Z AUTO 05015KT 6SM BR OVC004 07/06 A2985 RMK AO2 LTG DSNT E AND SE CIG 003V007
Observed
Mar-24 @ 02:16 UTC
Wind
  • 050° at 15 KTS
Visibility
6 SM
Flight Rules
LIFR
Conditions
Mist
Cloud Levels
  • Overcast at 400' AGL
Temperature
C / 45°F
Dewpoint
C / 43°F
Humidity
93%
Altimeter
29.85" Hg
Pressure
1010.82 hPa
Previous

2 hours ago

KEAR 240132Z AUTO 05015KT 9SM BKN008 OVC011 07/06 A2984 RMK AO2 WSHFT 0050 LTG DSNT E TSE05B10E25RAE25 P0000
Observed
Mar-24 @ 01:32 UTC
Wind
  • 050° at 15 KTS
Visibility
9 SM
Flight Rules
IFR
Cloud Levels
  • Broken at 800' AGL
  • Overcast at 1,100' AGL
Temperature
C / 45°F
Dewpoint
C / 43°F
Humidity
93%
Altimeter
29.84" Hg
Pressure
1010.52 hPa
Current Rain
0.01"